Startpagina
METAR-TAF:

METAR-TAF

Vliegvelden :

Tumbes, Peru

breedte: 03-33S, lengte: 080-24W, hoogte: 25 m

Actueel weer

Dit bericht is 12 minuten geleden gemaakt, om 17:00 UTC
Wind 7 kt uit het noordnoordwesten, variërend tussen het westen en het noorden
Temperatuur 24°C
Vochtigheid 74%
Druk 1013 hPa
Zicht: 8000 m
Geheel bewolkt op 1300 ft

METAR: SPME 151700Z 33007KT 270V360 8000 OVC013 24/19 Q1013 RMK BIRD HAZARD RWY 32/14 PP000

Tijdstip: 12:12 (17:12 UTC)

Verwachting

Dit bericht is 5 uur en het 2 minuten geleden gemaakt, om 12:10 UTC
Verwachting geldig van 15 om 12 UTC tot 16 om 12 UTC
Wind 5 kt uit het westnoordwesten
Zicht: 4000 m
Geheel bewolkt op 1000 ft
nevel
Wijzigt naar
van 15 om 14 UTC tot 15 om 16 UTC
Zicht: 8000 m
Van 15 om 1900 UTC
Wind 10 kt uit het noorden
Zicht 10 km of meer
Gebroken wolken op 1300 ft

TAF: SPME 151210Z 1512/1612 29005KT 4000 BR OVC010 TX26/1519Z TN20/1611Z BECMG 1514/1516 8000 NSW FM151900 35010KT 9999 BKN013

Waarnemingen en weersverwachtingen van meer dan 4000 vliegvelden (METAR en TAF).

De beschikbare stations zijn de gele en rode punten op de kaart.

Ga met uw muis naar het station om de naam te zien.

Klik dan om waarnemingen en weersverwachtingen te zien.

kaart wijzigen: klik op de groene knoppen met een zwart kruis om in te zoomen, op de groene knop met een streepje om uit te zoomen of op de groene pijlen voor aangrenzende kaarten.


METAR-TAF: